createdAt,value
2019-03-13T00:03:34.412Z,4.80
2019-03-13T00:33:38.507Z,5.20
2019-03-13T01:03:43.880Z,5.40
2019-03-13T01:33:48.094Z,5.40
2019-03-13T02:03:52.133Z,5.50
2019-03-13T02:33:56.232Z,5.70
2019-03-13T03:04:01.767Z,5.60
2019-03-13T03:34:05.535Z,5.60
2019-03-13T04:04:09.287Z,5.90
2019-03-13T04:34:13.251Z,5.90
2019-03-13T05:04:17.050Z,6.10
2019-03-13T05:34:20.917Z,6.00
2019-03-13T06:04:24.732Z,6.10
2019-03-13T06:34:29.548Z,6.10
2019-03-13T07:04:35.019Z,6.30
2019-03-13T07:34:43.419Z,6.20
2019-03-13T08:04:47.431Z,6.20
2019-03-13T08:34:52.771Z,7.10
2019-03-13T09:05:06.961Z,12.60
2019-03-13T09:35:12.433Z,9.80
2019-03-13T10:05:18.038Z,15.30
2019-03-13T10:35:23.474Z,11.70
2019-03-13T11:05:41.180Z,13.00
2019-03-13T11:36:03.038Z,11.80
2019-03-13T12:06:14.165Z,12.70
2019-03-13T12:36:35.693Z,12.20
2019-03-13T13:06:47.011Z,12.10
2019-03-13T13:36:51.070Z,11.90
2019-03-13T14:06:55.034Z,11.70
2019-03-13T14:36:58.799Z,11.50
2019-03-13T15:07:02.776Z,11.00
2019-03-13T15:37:06.788Z,10.70
2019-03-13T16:07:10.769Z,10.40
2019-03-13T16:37:14.571Z,9.90
2019-03-13T17:07:18.607Z,9.60
2019-03-13T17:37:22.355Z,9.10
2019-03-13T18:07:26.295Z,8.10
2019-03-13T18:37:30.059Z,7.20
2019-03-13T19:07:34.941Z,7.80
2019-03-13T19:37:38.979Z,7.70
2019-03-13T20:07:42.975Z,6.70
2019-03-13T20:37:47.609Z,6.40
2019-03-13T21:07:51.372Z,7.00
2019-03-13T21:37:55.165Z,7.30
2019-03-13T22:07:59.065Z,7.60
2019-03-13T22:38:02.844Z,7.60
2019-03-13T23:08:06.622Z,7.40
2019-03-13T23:38:10.768Z,7.10
